LOT351 EPWA-EDDM
Flight info
| Callsign | LOT351 |
|---|---|
| Flight time | 1h 31m |
| Altitude | 34000 |
| Route | SOXER N869 UVIVI DCT ELVOT DCT IPRUX DCT NIRGO T108 LANDU LANDU2A |
| Aircraft | B38M/M-SDE1FGHILORVWXY/HB1 |
Departure
| Time | 2026-05-06 05:58 |
|---|---|
| Airport | Warsaw Chopin Airport (EPWA) |
Arrival
| Time | 2026-05-06 07:30 |
|---|---|
| Airport | Munich Airport (EDDM) |
| Time | Latitude | Longitude | Altitude | Speed | Heading |
|---|---|---|---|---|---|
| 2026-05-06 05:37 | 52.17220 | 20.96926 | 367 ft | 0 kts | 62° |
| 2026-05-06 05:50 | 52.17215 | 20.96913 | 366 ft | 2 kts | 62° |
| 2026-05-06 05:50 | 52.17208 | 20.96891 | 366 ft | 2 kts | 62° |
| 2026-05-06 05:50 | 52.17204 | 20.96878 | 366 ft | 2 kts | 62° |
| 2026-05-06 05:50 | 52.17194 | 20.96859 | 366 ft | 2 kts | 36° |
| 2026-05-06 05:51 | 52.17182 | 20.96847 | 366 ft | 2 kts | 19° |
| 2026-05-06 05:51 | 52.17168 | 20.96843 | 366 ft | 2 kts | 360° |
| 2026-05-06 05:51 | 52.17153 | 20.96846 | 366 ft | 2 kts | 340° |
| 2026-05-06 05:51 | 52.17146 | 20.96851 | 366 ft | 1 kts | 329° |
| 2026-05-06 05:52 | 52.17142 | 20.96855 | 366 ft | 0 kts | 332° |
| 2026-05-06 05:55 | 52.17162 | 20.96837 | 366 ft | 7 kts | 332° |
| 2026-05-06 05:55 | 52.17215 | 20.96792 | 366 ft | 11 kts | 332° |
| 2026-05-06 05:55 | 52.17310 | 20.96710 | 366 ft | 19 kts | 332° |
| 2026-05-06 05:55 | 52.17441 | 20.96595 | 366 ft | 14 kts | 329° |
| 2026-05-06 05:56 | 52.17456 | 20.96475 | 366 ft | 12 kts | 242° |
| 2026-05-06 05:56 | 52.17444 | 20.96364 | 366 ft | 10 kts | 318° |
| 2026-05-06 05:56 | 52.17565 | 20.96250 | 366 ft | 26 kts | 332° |
| 2026-05-06 05:56 | 52.17719 | 20.96117 | 366 ft | 23 kts | 332° |
| 2026-05-06 05:57 | 52.17825 | 20.95965 | 366 ft | 18 kts | 302° |
| 2026-05-06 05:57 | 52.17887 | 20.95804 | 366 ft | 15 kts | 298° |
| 2026-05-06 05:57 | 52.17868 | 20.95665 | 366 ft | 11 kts | 237° |
| 2026-05-06 05:57 | 52.17807 | 20.95640 | 366 ft | 9 kts | 159° |
| 2026-05-06 05:58 | 52.17582 | 20.95834 | 366 ft | 78 kts | 151° |
| 2026-05-06 05:58 | 52.16847 | 20.96474 | 367 ft | 157 kts | 151° |
| 2026-05-06 05:58 | 52.15786 | 20.97396 | 926 ft | 178 kts | 152° |
| 2026-05-06 05:58 | 52.14758 | 20.98268 | 2063 ft | 167 kts | 153° |
| 2026-05-06 05:59 | 52.13740 | 20.99095 | 2605 ft | 174 kts | 155° |
| 2026-05-06 05:59 | 52.12524 | 21.00018 | 2727 ft | 205 kts | 154° |
| 2026-05-06 05:59 | 52.11235 | 21.00767 | 3412 ft | 201 kts | 177° |
| 2026-05-06 05:59 | 52.09846 | 21.00087 | 3635 ft | 226 kts | 217° |
| 2026-05-06 06:00 | 52.08726 | 20.98177 | 4078 ft | 238 kts | 222° |
| 2026-05-06 06:00 | 52.07413 | 20.96522 | 4368 ft | 244 kts | 212° |
| 2026-05-06 06:00 | 52.05961 | 20.94997 | 5272 ft | 255 kts | 216° |
| 2026-05-06 06:00 | 52.04719 | 20.93094 | 6656 ft | 249 kts | 231° |
| 2026-05-06 06:01 | 52.03851 | 20.90727 | 7813 ft | 251 kts | 246° |
| 2026-05-06 06:01 | 52.03417 | 20.87980 | 8836 ft | 257 kts | 261° |
| 2026-05-06 06:01 | 52.03324 | 20.85105 | 9959 ft | 257 kts | 268° |
| 2026-05-06 06:01 | 52.03317 | 20.82198 | 10901 ft | 261 kts | 268° |
| 2026-05-06 06:02 | 52.03303 | 20.79261 | 11877 ft | 263 kts | 268° |
| 2026-05-06 06:02 | 52.03272 | 20.76358 | 12785 ft | 266 kts | 267° |
| 2026-05-06 06:02 | 52.03230 | 20.73329 | 13687 ft | 269 kts | 267° |
| 2026-05-06 06:02 | 52.03189 | 20.70329 | 14543 ft | 271 kts | 268° |
| 2026-05-06 06:03 | 52.03146 | 20.67257 | 15382 ft | 274 kts | 268° |
| 2026-05-06 06:03 | 52.03100 | 20.64156 | 16196 ft | 277 kts | 268° |
| 2026-05-06 06:03 | 52.03047 | 20.61019 | 16981 ft | 279 kts | 268° |
| 2026-05-06 06:03 | 52.02983 | 20.57868 | 17737 ft | 282 kts | 268° |
| 2026-05-06 06:04 | 52.02919 | 20.54642 | 18323 ft | 291 kts | 269° |
| 2026-05-06 06:04 | 52.02963 | 20.51227 | 18394 ft | 317 kts | 272° |
| 2026-05-06 06:04 | 52.03079 | 20.47510 | 18456 ft | 342 kts | 272° |
| 2026-05-06 06:04 | 52.03196 | 20.43498 | 18510 ft | 365 kts | 272° |
| 2026-05-06 06:05 | 52.03295 | 20.39240 | 18561 ft | 387 kts | 272° |
| 2026-05-06 06:05 | 52.03381 | 20.34768 | 18908 ft | 398 kts | 271° |
| 2026-05-06 06:05 | 52.03478 | 20.30271 | 19481 ft | 403 kts | 271° |
| 2026-05-06 06:05 | 52.03591 | 20.25726 | 20110 ft | 406 kts | 272° |
| 2026-05-06 06:06 | 52.03711 | 20.21139 | 20692 ft | 410 kts | 272° |
| 2026-05-06 06:06 | 52.03836 | 20.16464 | 21280 ft | 413 kts | 272° |
| 2026-05-06 06:06 | 52.03961 | 20.11828 | 21823 ft | 416 kts | 272° |
| 2026-05-06 06:06 | 52.04087 | 20.07161 | 22340 ft | 420 kts | 272° |
| 2026-05-06 06:07 | 52.04215 | 20.02403 | 22846 ft | 423 kts | 272° |
| 2026-05-06 06:07 | 52.04218 | 19.97584 | 23311 ft | 427 kts | 266° |
| 2026-05-06 06:07 | 52.03841 | 19.92771 | 23786 ft | 431 kts | 260° |
| 2026-05-06 06:07 | 52.03130 | 19.88042 | 24243 ft | 435 kts | 255° |
| 2026-05-06 06:08 | 52.02192 | 19.83391 | 24702 ft | 438 kts | 253° |
| 2026-05-06 06:08 | 52.01188 | 19.78690 | 25108 ft | 442 kts | 252° |
| 2026-05-06 06:08 | 52.00174 | 19.73996 | 25531 ft | 445 kts | 252° |
| 2026-05-06 06:08 | 51.99140 | 19.69224 | 25931 ft | 448 kts | 253° |
| 2026-05-06 06:09 | 51.98110 | 19.64478 | 26387 ft | 449 kts | 253° |
| 2026-05-06 06:09 | 51.97076 | 19.59724 | 26918 ft | 448 kts | 253° |
| 2026-05-06 06:09 | 51.96027 | 19.54916 | 27425 ft | 448 kts | 253° |
| 2026-05-06 06:09 | 51.94987 | 19.50207 | 27944 ft | 447 kts | 253° |
| 2026-05-06 06:10 | 51.93933 | 19.45441 | 28437 ft | 447 kts | 253° |
| 2026-05-06 06:10 | 51.92897 | 19.40753 | 28939 ft | 446 kts | 253° |
| 2026-05-06 06:10 | 51.91840 | 19.35971 | 29400 ft | 446 kts | 253° |
| 2026-05-06 06:10 | 51.90798 | 19.31261 | 29883 ft | 445 kts | 253° |
| 2026-05-06 06:11 | 51.89762 | 19.26585 | 30330 ft | 445 kts | 253° |
| 2026-05-06 06:11 | 51.88720 | 19.21892 | 30774 ft | 444 kts | 253° |
| 2026-05-06 06:11 | 51.87685 | 19.17229 | 31216 ft | 443 kts | 253° |
| 2026-05-06 06:11 | 51.86645 | 19.12558 | 31727 ft | 441 kts | 253° |
| 2026-05-06 06:12 | 51.85613 | 19.07905 | 32185 ft | 439 kts | 253° |
| 2026-05-06 06:12 | 51.84592 | 19.03270 | 32660 ft | 437 kts | 253° |
| 2026-05-06 06:12 | 51.83578 | 18.98653 | 33124 ft | 434 kts | 253° |
| 2026-05-06 06:12 | 51.82564 | 18.94035 | 33558 ft | 432 kts | 254° |
| 2026-05-06 06:13 | 51.81558 | 18.89449 | 33754 ft | 436 kts | 254° |
| 2026-05-06 06:13 | 51.80544 | 18.84829 | 33746 ft | 434 kts | 254° |
| 2026-05-06 06:13 | 51.78542 | 18.75801 | 33751 ft | 427 kts | 254° |
| 2026-05-06 06:14 | 51.76540 | 18.66769 | 33751 ft | 429 kts | 254° |
| 2026-05-06 06:14 | 51.74535 | 18.57732 | 33750 ft | 430 kts | 254° |
| 2026-05-06 06:15 | 51.72510 | 18.48639 | 33749 ft | 429 kts | 254° |
| 2026-05-06 06:15 | 51.70499 | 18.39631 | 33750 ft | 429 kts | 254° |
| 2026-05-06 06:16 | 51.68465 | 18.30563 | 33750 ft | 430 kts | 253° |
| 2026-05-06 06:16 | 51.66430 | 18.21535 | 33750 ft | 430 kts | 253° |
| 2026-05-06 06:17 | 51.64376 | 18.12460 | 33760 ft | 429 kts | 253° |
| 2026-05-06 06:17 | 51.62262 | 18.03492 | 33769 ft | 431 kts | 249° |
| 2026-05-06 06:18 | 51.59529 | 17.94969 | 33777 ft | 433 kts | 244° |
| 2026-05-06 06:18 | 51.56331 | 17.86704 | 33776 ft | 437 kts | 238° |
| 2026-05-06 06:19 | 51.52505 | 17.79103 | 33777 ft | 440 kts | 232° |
| 2026-05-06 06:19 | 51.48210 | 17.72081 | 33777 ft | 442 kts | 229° |
| 2026-05-06 06:20 | 51.43817 | 17.65210 | 33777 ft | 442 kts | 229° |
| 2026-05-06 06:20 | 51.39395 | 17.58340 | 33777 ft | 442 kts | 229° |
| 2026-05-06 06:21 | 51.35001 | 17.51548 | 33777 ft | 442 kts | 228° |
| 2026-05-06 06:21 | 51.30575 | 17.44735 | 33777 ft | 442 kts | 228° |
| 2026-05-06 06:22 | 51.26134 | 17.37922 | 33777 ft | 442 kts | 228° |
| 2026-05-06 06:22 | 51.21713 | 17.31161 | 33777 ft | 443 kts | 227° |
| 2026-05-06 06:23 | 51.17251 | 17.24359 | 33777 ft | 443 kts | 227° |
| 2026-05-06 06:23 | 51.12819 | 17.17622 | 33777 ft | 443 kts | 227° |
| 2026-05-06 06:24 | 51.08356 | 17.10856 | 33777 ft | 443 kts | 227° |
| 2026-05-06 06:24 | 51.03923 | 17.04154 | 33777 ft | 443 kts | 227° |
| 2026-05-06 06:25 | 50.99449 | 16.97412 | 33777 ft | 443 kts | 230° |
| 2026-05-06 06:26 | 50.92741 | 16.87334 | 33777 ft | 445 kts | 233° |
| 2026-05-06 06:26 | 50.88219 | 16.80560 | 33777 ft | 448 kts | 236° |
| 2026-05-06 06:27 | 50.83710 | 16.73824 | 33777 ft | 450 kts | 236° |
| 2026-05-06 06:27 | 50.79140 | 16.67023 | 33776 ft | 449 kts | 236° |
| 2026-05-06 06:28 | 50.74632 | 16.60337 | 33776 ft | 447 kts | 236° |
| 2026-05-06 06:28 | 50.70084 | 16.53604 | 33777 ft | 448 kts | 236° |
| 2026-05-06 06:29 | 50.65628 | 16.46864 | 33776 ft | 442 kts | 240° |
| 2026-05-06 06:29 | 50.61830 | 16.39499 | 33776 ft | 427 kts | 248° |
| 2026-05-06 06:30 | 50.58660 | 16.31727 | 33777 ft | 422 kts | 252° |
| 2026-05-06 06:30 | 50.55759 | 16.23760 | 33791 ft | 419 kts | 253° |
| 2026-05-06 06:31 | 50.52987 | 16.15750 | 33812 ft | 417 kts | 254° |
| 2026-05-06 06:31 | 50.50263 | 16.07700 | 33828 ft | 416 kts | 255° |
| 2026-05-06 06:32 | 50.47578 | 15.99701 | 33831 ft | 417 kts | 255° |
| 2026-05-06 06:32 | 50.44870 | 15.91619 | 33830 ft | 416 kts | 255° |
| 2026-05-06 06:33 | 50.42169 | 15.83566 | 33831 ft | 416 kts | 255° |
| 2026-05-06 06:33 | 50.39477 | 15.75554 | 33831 ft | 416 kts | 255° |
| 2026-05-06 06:34 | 50.36777 | 15.67535 | 33831 ft | 416 kts | 255° |
| 2026-05-06 06:34 | 50.34084 | 15.59560 | 33831 ft | 415 kts | 255° |
| 2026-05-06 06:35 | 50.31376 | 15.51563 | 33831 ft | 416 kts | 255° |
| 2026-05-06 06:35 | 50.28665 | 15.43584 | 33831 ft | 415 kts | 255° |
| 2026-05-06 06:36 | 50.25964 | 15.35658 | 33830 ft | 415 kts | 255° |
| 2026-05-06 06:36 | 50.23239 | 15.27690 | 33824 ft | 418 kts | 254° |
| 2026-05-06 06:37 | 50.20492 | 15.19687 | 33814 ft | 417 kts | 254° |
| 2026-05-06 06:37 | 50.17753 | 15.11733 | 33805 ft | 416 kts | 254° |
| 2026-05-06 06:38 | 50.15026 | 15.03835 | 33804 ft | 415 kts | 254° |
| 2026-05-06 06:38 | 50.12304 | 14.95981 | 33803 ft | 412 kts | 253° |
| 2026-05-06 06:39 | 50.09589 | 14.88167 | 33804 ft | 409 kts | 253° |
| 2026-05-06 06:39 | 50.06876 | 14.80381 | 33804 ft | 409 kts | 253° |
| 2026-05-06 06:40 | 50.04155 | 14.72588 | 33804 ft | 411 kts | 253° |
| 2026-05-06 06:40 | 50.01435 | 14.64823 | 33804 ft | 411 kts | 253° |
| 2026-05-06 06:41 | 49.98686 | 14.57006 | 33804 ft | 410 kts | 253° |
| 2026-05-06 06:41 | 49.95960 | 14.49275 | 33804 ft | 410 kts | 253° |
| 2026-05-06 06:42 | 49.93211 | 14.41502 | 33804 ft | 411 kts | 253° |
| 2026-05-06 06:42 | 49.90480 | 14.33804 | 33804 ft | 411 kts | 252° |
| 2026-05-06 06:43 | 49.87753 | 14.26147 | 33804 ft | 412 kts | 252° |
| 2026-05-06 06:43 | 49.85005 | 14.18455 | 33804 ft | 412 kts | 252° |
| 2026-05-06 06:44 | 49.82243 | 14.10744 | 33804 ft | 412 kts | 252° |
| 2026-05-06 06:44 | 49.79474 | 14.03033 | 33804 ft | 412 kts | 252° |
| 2026-05-06 06:45 | 49.76682 | 13.95280 | 33804 ft | 412 kts | 252° |
| 2026-05-06 06:45 | 49.73885 | 13.87538 | 33806 ft | 411 kts | 252° |
| 2026-05-06 06:46 | 49.71097 | 13.79843 | 33815 ft | 411 kts | 252° |
| 2026-05-06 06:46 | 49.68319 | 13.72198 | 33824 ft | 411 kts | 252° |
| 2026-05-06 06:47 | 49.65512 | 13.64496 | 33830 ft | 412 kts | 252° |
| 2026-05-06 06:47 | 49.62707 | 13.56822 | 33831 ft | 411 kts | 252° |
| 2026-05-06 06:48 | 49.59905 | 13.49179 | 33831 ft | 411 kts | 252° |
| 2026-05-06 06:48 | 49.57093 | 13.41533 | 33831 ft | 411 kts | 252° |
| 2026-05-06 06:49 | 49.54268 | 13.33871 | 33831 ft | 412 kts | 252° |
| 2026-05-06 06:49 | 49.52599 | 13.30181 | 33826 ft | 431 kts | 240° |
| 2026-05-06 06:49 | 49.50416 | 13.26965 | 33836 ft | 443 kts | 234° |
| 2026-05-06 06:50 | 49.45552 | 13.20970 | 33828 ft | 459 kts | 223° |
| 2026-05-06 06:50 | 49.42688 | 13.18686 | 33831 ft | 474 kts | 214° |
| 2026-05-06 06:50 | 49.39632 | 13.16866 | 33833 ft | 477 kts | 211° |
| 2026-05-06 06:51 | 49.33467 | 13.13241 | 33830 ft | 467 kts | 216° |
| 2026-05-06 06:51 | 49.27679 | 13.09084 | 33831 ft | 460 kts | 217° |
| 2026-05-06 06:52 | 49.21933 | 13.04855 | 33831 ft | 457 kts | 217° |
| 2026-05-06 06:52 | 49.16223 | 13.00697 | 33831 ft | 454 kts | 217° |
| 2026-05-06 06:53 | 49.10567 | 12.96614 | 33830 ft | 451 kts | 217° |
| 2026-05-06 06:53 | 49.04909 | 12.92508 | 33831 ft | 456 kts | 217° |
| 2026-05-06 06:54 | 48.99101 | 12.88284 | 33830 ft | 466 kts | 216° |
| 2026-05-06 06:54 | 48.93231 | 12.84041 | 33831 ft | 471 kts | 215° |
| 2026-05-06 06:55 | 48.87356 | 12.79832 | 33831 ft | 470 kts | 216° |
| 2026-05-06 06:55 | 48.81457 | 12.75611 | 33834 ft | 469 kts | 216° |
| 2026-05-06 06:56 | 48.75567 | 12.71397 | 33839 ft | 469 kts | 216° |
| 2026-05-06 06:56 | 48.69687 | 12.67193 | 33845 ft | 468 kts | 217° |
| 2026-05-06 06:56 | 48.66974 | 12.64636 | 33844 ft | 450 kts | 230° |
| 2026-05-06 06:57 | 48.64830 | 12.61437 | 33847 ft | 431 kts | 243° |
| 2026-05-06 06:57 | 48.63283 | 12.57716 | 33844 ft | 412 kts | 256° |
| 2026-05-06 06:57 | 48.62316 | 12.53670 | 33843 ft | 401 kts | 264° |
| 2026-05-06 06:58 | 48.61249 | 12.45670 | 33831 ft | 393 kts | 270° |
| 2026-05-06 06:58 | 48.60495 | 12.37387 | 33830 ft | 391 kts | 271° |
| 2026-05-06 06:58 | 48.60171 | 12.33421 | 33503 ft | 392 kts | 271° |
| 2026-05-06 06:59 | 48.59851 | 12.29444 | 32868 ft | 378 kts | 271° |
| 2026-05-06 06:59 | 48.59571 | 12.25558 | 32249 ft | 361 kts | 274° |
| 2026-05-06 06:59 | 48.59678 | 12.21898 | 31624 ft | 341 kts | 284° |
| 2026-05-06 06:59 | 48.60263 | 12.18535 | 31000 ft | 328 kts | 294° |
| 2026-05-06 07:00 | 48.61332 | 12.15530 | 30379 ft | 328 kts | 304° |
| 2026-05-06 07:00 | 48.62753 | 12.12815 | 29765 ft | 335 kts | 310° |
| 2026-05-06 07:00 | 48.64455 | 12.10379 | 29142 ft | 342 kts | 317° |
| 2026-05-06 07:00 | 48.66428 | 12.08366 | 28520 ft | 351 kts | 325° |
| 2026-05-06 07:01 | 48.68681 | 12.06855 | 27782 ft | 364 kts | 334° |
| 2026-05-06 07:01 | 48.71180 | 12.05982 | 27030 ft | 378 kts | 345° |
| 2026-05-06 07:01 | 48.73886 | 12.05942 | 26273 ft | 396 kts | 357° |
| 2026-05-06 07:01 | 48.76624 | 12.06836 | 25522 ft | 415 kts | 11° |
| 2026-05-06 07:02 | 48.79237 | 12.08767 | 24771 ft | 432 kts | 27° |
| 2026-05-06 07:02 | 48.81477 | 12.11880 | 24011 ft | 444 kts | 46° |
| 2026-05-06 07:02 | 48.83038 | 12.15891 | 23263 ft | 449 kts | 65° |
| 2026-05-06 07:02 | 48.83783 | 12.20470 | 22512 ft | 448 kts | 84° |
| 2026-05-06 07:03 | 48.83831 | 12.25135 | 21777 ft | 442 kts | 93° |
| 2026-05-06 07:03 | 48.83632 | 12.29702 | 21030 ft | 435 kts | 96° |
| 2026-05-06 07:03 | 48.83347 | 12.34242 | 20273 ft | 427 kts | 97° |
| 2026-05-06 07:03 | 48.83015 | 12.38660 | 19522 ft | 420 kts | 98° |
| 2026-05-06 07:04 | 48.82664 | 12.42961 | 18778 ft | 413 kts | 99° |
| 2026-05-06 07:04 | 48.82254 | 12.47251 | 18013 ft | 404 kts | 107° |
| 2026-05-06 07:04 | 48.81184 | 12.51080 | 17249 ft | 387 kts | 128° |
| 2026-05-06 07:04 | 48.79507 | 12.54108 | 16512 ft | 372 kts | 143° |
| 2026-05-06 07:05 | 48.77450 | 12.56415 | 15753 ft | 358 kts | 155° |
| 2026-05-06 07:05 | 48.75261 | 12.57900 | 15013 ft | 346 kts | 167° |
| 2026-05-06 07:05 | 48.72959 | 12.58647 | 14255 ft | 331 kts | 179° |
| 2026-05-06 07:05 | 48.70730 | 12.58665 | 13506 ft | 318 kts | 189° |
| 2026-05-06 07:06 | 48.68586 | 12.58035 | 12745 ft | 307 kts | 199° |
| 2026-05-06 07:06 | 48.66643 | 12.56835 | 11992 ft | 299 kts | 210° |
| 2026-05-06 07:06 | 48.64926 | 12.55113 | 11235 ft | 293 kts | 220° |
| 2026-05-06 07:06 | 48.63509 | 12.53005 | 10494 ft | 289 kts | 228° |
| 2026-05-06 07:07 | 48.62309 | 12.50592 | 9891 ft | 281 kts | 236° |
| 2026-05-06 07:07 | 48.61486 | 12.48029 | 9831 ft | 271 kts | 249° |
| 2026-05-06 07:07 | 48.60993 | 12.45263 | 9834 ft | 274 kts | 256° |
| 2026-05-06 07:07 | 48.60701 | 12.42406 | 9830 ft | 277 kts | 260° |
| 2026-05-06 07:08 | 48.60484 | 12.39528 | 9830 ft | 275 kts | 261° |
| 2026-05-06 07:08 | 48.60284 | 12.36655 | 9846 ft | 270 kts | 261° |
| 2026-05-06 07:08 | 48.60097 | 12.33920 | 9856 ft | 257 kts | 261° |
| 2026-05-06 07:08 | 48.59910 | 12.31244 | 9822 ft | 259 kts | 261° |
| 2026-05-06 07:09 | 48.59722 | 12.28541 | 9825 ft | 259 kts | 261° |
| 2026-05-06 07:09 | 48.59584 | 12.25799 | 9828 ft | 257 kts | 263° |
| 2026-05-06 07:09 | 48.59480 | 12.23103 | 9825 ft | 257 kts | 263° |
| 2026-05-06 07:09 | 48.59384 | 12.20373 | 9828 ft | 261 kts | 263° |
| 2026-05-06 07:10 | 48.59287 | 12.17663 | 9827 ft | 261 kts | 263° |
| 2026-05-06 07:10 | 48.59187 | 12.14923 | 9829 ft | 260 kts | 263° |
| 2026-05-06 07:10 | 48.59088 | 12.12205 | 9830 ft | 260 kts | 263° |
| 2026-05-06 07:10 | 48.58986 | 12.09434 | 9830 ft | 260 kts | 263° |
| 2026-05-06 07:11 | 48.58886 | 12.06725 | 9830 ft | 260 kts | 263° |
| 2026-05-06 07:11 | 48.58785 | 12.04018 | 9824 ft | 254 kts | 263° |
| 2026-05-06 07:11 | 48.58688 | 12.01383 | 9580 ft | 247 kts | 263° |
| 2026-05-06 07:11 | 48.58591 | 11.98806 | 9198 ft | 243 kts | 263° |
| 2026-05-06 07:12 | 48.58494 | 11.96287 | 8827 ft | 242 kts | 263° |
| 2026-05-06 07:12 | 48.58396 | 11.93745 | 8451 ft | 242 kts | 263° |
| 2026-05-06 07:12 | 48.58298 | 11.91192 | 8076 ft | 242 kts | 263° |
| 2026-05-06 07:12 | 48.58200 | 11.88655 | 7702 ft | 242 kts | 263° |
| 2026-05-06 07:13 | 48.58101 | 11.86127 | 7328 ft | 241 kts | 263° |
| 2026-05-06 07:13 | 48.58002 | 11.83582 | 6952 ft | 241 kts | 264° |
| 2026-05-06 07:13 | 48.57903 | 11.81068 | 6578 ft | 240 kts | 264° |
| 2026-05-06 07:13 | 48.57803 | 11.78547 | 6203 ft | 240 kts | 264° |
| 2026-05-06 07:14 | 48.57703 | 11.76031 | 5827 ft | 239 kts | 264° |
| 2026-05-06 07:14 | 48.57603 | 11.73513 | 5450 ft | 239 kts | 264° |
| 2026-05-06 07:14 | 48.57509 | 11.71042 | 5087 ft | 237 kts | 264° |
| 2026-05-06 07:14 | 48.57418 | 11.68537 | 4993 ft | 235 kts | 265° |
| 2026-05-06 07:15 | 48.57333 | 11.66063 | 4997 ft | 238 kts | 265° |
| 2026-05-06 07:15 | 48.57250 | 11.63552 | 4991 ft | 238 kts | 265° |
| 2026-05-06 07:15 | 48.57170 | 11.61062 | 4992 ft | 238 kts | 265° |
| 2026-05-06 07:15 | 48.57055 | 11.58563 | 4985 ft | 237 kts | 257° |
| 2026-05-06 07:16 | 48.56249 | 11.56463 | 4988 ft | 230 kts | 218° |
| 2026-05-06 07:16 | 48.54776 | 11.55666 | 4996 ft | 229 kts | 179° |
| 2026-05-06 07:16 | 48.53296 | 11.56516 | 4994 ft | 231 kts | 140° |
| 2026-05-06 07:16 | 48.52527 | 11.58605 | 4994 ft | 236 kts | 102° |
| 2026-05-06 07:17 | 48.52566 | 11.61085 | 5007 ft | 239 kts | 84° |
| 2026-05-06 07:17 | 48.52843 | 11.63588 | 4990 ft | 239 kts | 82° |
| 2026-05-06 07:17 | 48.53137 | 11.66051 | 4991 ft | 238 kts | 82° |
| 2026-05-06 07:17 | 48.53318 | 11.68540 | 4990 ft | 237 kts | 92° |
| 2026-05-06 07:18 | 48.53061 | 11.70897 | 4978 ft | 219 kts | 111° |
| 2026-05-06 07:18 | 48.52433 | 11.72956 | 4996 ft | 212 kts | 122° |
| 2026-05-06 07:18 | 48.51675 | 11.74871 | 4994 ft | 211 kts | 123° |
| 2026-05-06 07:18 | 48.50919 | 11.76774 | 4994 ft | 211 kts | 122° |
| 2026-05-06 07:19 | 48.50188 | 11.78691 | 4994 ft | 211 kts | 122° |
| 2026-05-06 07:19 | 48.49463 | 11.80631 | 4993 ft | 211 kts | 122° |
| 2026-05-06 07:19 | 48.48732 | 11.82561 | 4993 ft | 211 kts | 122° |
| 2026-05-06 07:19 | 48.47998 | 11.84482 | 4993 ft | 211 kts | 122° |
| 2026-05-06 07:20 | 48.47279 | 11.86379 | 4993 ft | 211 kts | 122° |
| 2026-05-06 07:20 | 48.46677 | 11.88420 | 5000 ft | 212 kts | 103° |
| 2026-05-06 07:20 | 48.46651 | 11.90646 | 5000 ft | 217 kts | 88° |
| 2026-05-06 07:20 | 48.46811 | 11.92918 | 4990 ft | 217 kts | 85° |
| 2026-05-06 07:21 | 48.46992 | 11.95185 | 4991 ft | 216 kts | 85° |
| 2026-05-06 07:21 | 48.47172 | 11.97429 | 4992 ft | 217 kts | 85° |
| 2026-05-06 07:21 | 48.47353 | 11.99681 | 4991 ft | 217 kts | 85° |
| 2026-05-06 07:21 | 48.47535 | 12.01944 | 4991 ft | 217 kts | 85° |
| 2026-05-06 07:22 | 48.47717 | 12.04209 | 4992 ft | 217 kts | 85° |
| 2026-05-06 07:22 | 48.47897 | 12.06443 | 4992 ft | 217 kts | 85° |
| 2026-05-06 07:22 | 48.48077 | 12.08698 | 4992 ft | 217 kts | 85° |
| 2026-05-06 07:22 | 48.48077 | 12.10937 | 4979 ft | 213 kts | 107° |
| 2026-05-06 07:23 | 48.47313 | 12.12779 | 4995 ft | 209 kts | 142° |
| 2026-05-06 07:23 | 48.46010 | 12.13682 | 5004 ft | 207 kts | 167° |
| 2026-05-06 07:23 | 48.44582 | 12.14061 | 4994 ft | 207 kts | 172° |
| 2026-05-06 07:23 | 48.43170 | 12.14322 | 4987 ft | 202 kts | 173° |
| 2026-05-06 07:24 | 48.41811 | 12.14561 | 5003 ft | 190 kts | 173° |
| 2026-05-06 07:24 | 48.40502 | 12.14788 | 4981 ft | 193 kts | 174° |
| 2026-05-06 07:24 | 48.39199 | 12.14463 | 4730 ft | 192 kts | 207° |
| 2026-05-06 07:24 | 48.38308 | 12.13001 | 4496 ft | 196 kts | 244° |
| 2026-05-06 07:25 | 48.38021 | 12.10978 | 4271 ft | 199 kts | 262° |
| 2026-05-06 07:25 | 48.37924 | 12.08925 | 4048 ft | 198 kts | 264° |
| 2026-05-06 07:25 | 48.37878 | 12.06862 | 3985 ft | 196 kts | 269° |
| 2026-05-06 07:25 | 48.37960 | 12.04803 | 3991 ft | 199 kts | 273° |
| 2026-05-06 07:26 | 48.38090 | 12.02720 | 3980 ft | 200 kts | 273° |
| 2026-05-06 07:26 | 48.38121 | 12.00676 | 3812 ft | 188 kts | 266° |
| 2026-05-06 07:26 | 48.38038 | 11.98806 | 3630 ft | 170 kts | 263° |
| 2026-05-06 07:26 | 48.37939 | 11.97156 | 3376 ft | 155 kts | 263° |
| 2026-05-06 07:27 | 48.37838 | 11.95551 | 3091 ft | 151 kts | 262° |
| 2026-05-06 07:27 | 48.37700 | 11.94003 | 2736 ft | 149 kts | 258° |
| 2026-05-06 07:27 | 48.37518 | 11.92460 | 2373 ft | 151 kts | 260° |
| 2026-05-06 07:27 | 48.37370 | 11.90933 | 2262 ft | 147 kts | 261° |
| 2026-05-06 07:28 | 48.37242 | 11.89383 | 2321 ft | 147 kts | 262° |
| 2026-05-06 07:28 | 48.37133 | 11.87863 | 2196 ft | 147 kts | 263° |
| 2026-05-06 07:28 | 48.36905 | 11.84828 | 1865 ft | 145 kts | 262° |
| 2026-05-06 07:29 | 48.36782 | 11.83319 | 1679 ft | 144 kts | 262° |
| 2026-05-06 07:29 | 48.36666 | 11.81853 | 1474 ft | 143 kts | 263° |
| 2026-05-06 07:29 | 48.36562 | 11.80471 | 1450 ft | 108 kts | 263° |
| 2026-05-06 07:29 | 48.36500 | 11.79669 | 1453 ft | 51 kts | 263° |
| 2026-05-06 07:30 | 48.36473 | 11.79301 | 1457 ft | 29 kts | 263° |
| 2026-05-06 07:30 | 48.36433 | 11.79013 | 1459 ft | 24 kts | 251° |
| 2026-05-06 07:30 | 48.36359 | 11.78824 | 1459 ft | 19 kts | 232° |
| 2026-05-06 07:30 | 48.36280 | 11.78670 | 1461 ft | 17 kts | 233° |
| 2026-05-06 07:31 | 48.36212 | 11.78534 | 1462 ft | 15 kts | 233° |
| 2026-05-06 07:31 | 48.36145 | 11.78390 | 1464 ft | 20 kts | 236° |
| 2026-05-06 07:31 | 48.36114 | 11.78154 | 1461 ft | 24 kts | 263° |
| 2026-05-06 07:31 | 48.36092 | 11.77907 | 1459 ft | 23 kts | 261° |
| 2026-05-06 07:32 | 48.36059 | 11.77685 | 1459 ft | 18 kts | 226° |
| 2026-05-06 07:32 | 48.35944 | 11.77677 | 1459 ft | 16 kts | 173° |
| 2026-05-06 07:32 | 48.35833 | 11.77699 | 1459 ft | 15 kts | 172° |
| 2026-05-06 07:32 | 48.35734 | 11.77718 | 1461 ft | 13 kts | 173° |
| 2026-05-06 07:33 | 48.35652 | 11.77732 | 1463 ft | 10 kts | 173° |
| 2026-05-06 07:33 | 48.35587 | 11.77745 | 1464 ft | 8 kts | 173° |
| 2026-05-06 07:33 | 48.35527 | 11.77756 | 1465 ft | 11 kts | 171° |
| 2026-05-06 07:33 | 48.35487 | 11.77871 | 1466 ft | 17 kts | 82° |
| 2026-05-06 07:34 | 48.35498 | 11.78086 | 1469 ft | 14 kts | 103° |
| 2026-05-06 07:34 | 48.35432 | 11.78145 | 1470 ft | 11 kts | 174° |
| 2026-05-06 07:34 | 48.35360 | 11.78157 | 1469 ft | 1 kts | 171° |
| 2026-05-06 07:34 | 48.35351 | 11.78159 | 1469 ft | 3 kts | 171° |
| 2026-05-06 07:35 | 48.35317 | 11.78181 | 1470 ft | 4 kts | 106° |
| 2026-05-06 07:35 | 48.35323 | 11.78267 | 1473 ft | 7 kts | 83° |
| 2026-05-06 07:35 | 48.35325 | 11.78302 | 1475 ft | 3 kts | 83° |
| 2026-05-06 07:35 | 48.35326 | 11.78306 | 1475 ft | 0 kts | 83° |